createdAt,value
2018-08-22T00:00:15.293Z,74.68
2018-08-22T00:01:15.281Z,74.48
2018-08-22T00:02:22.264Z,74.68
2018-08-22T00:03:15.269Z,74.88
2018-08-22T00:04:15.253Z,74.58
2018-08-22T00:05:15.239Z,74.58
2018-08-22T00:06:15.227Z,74.98
2018-08-22T00:07:15.239Z,75.09
2018-08-22T00:08:15.207Z,74.48
2018-08-22T00:09:15.212Z,74.68
2018-08-22T00:10:15.143Z,75.09
2018-08-22T00:11:15.175Z,74.78
2018-08-22T00:12:15.161Z,74.68
2018-08-22T00:13:15.189Z,74.48
2018-08-22T00:14:15.139Z,74.62
2018-08-22T00:15:15.204Z,75.12
2018-08-22T00:16:15.142Z,74.52
2018-08-22T00:17:15.122Z,74.88
2018-08-22T00:18:15.130Z,74.58
2018-08-22T00:19:15.096Z,74.48
2018-08-22T00:20:15.086Z,74.68
2018-08-22T00:21:15.066Z,74.48
2018-08-22T00:22:15.058Z,74.48
2018-08-22T00:23:15.090Z,74.88
2018-08-22T00:24:15.040Z,74.38
2018-08-22T00:25:15.151Z,74.58
2018-08-22T00:26:15.019Z,75.22
2018-08-22T00:27:14.962Z,74.92
2018-08-22T00:28:15.028Z,75.02
2018-08-22T00:29:15.083Z,75.18
2018-08-22T00:30:14.980Z,75.02
2018-08-22T00:31:15.091Z,74.62
2018-08-22T00:32:14.943Z,75.22
2018-08-22T00:33:15.023Z,75.18
2018-08-22T00:34:14.925Z,75.42
2018-08-22T00:35:14.915Z,75.32
2018-08-22T00:36:14.910Z,75.52
2018-08-22T00:37:14.904Z,75.82
2018-08-22T00:38:14.910Z,76.32
2018-08-22T00:39:14.880Z,76.53
2018-08-22T00:40:14.877Z,76.12
2018-08-22T00:41:14.805Z,76.12
2018-08-22T00:42:14.861Z,76.32
2018-08-22T00:43:14.929Z,76.03
2018-08-22T00:44:14.815Z,76.63
2018-08-22T00:45:14.809Z,76.63
2018-08-22T00:46:14.797Z,76.63
2018-08-22T00:47:14.745Z,76.32
2018-08-22T00:48:14.745Z,76.32
2018-08-22T00:49:14.767Z,76.12
2018-08-22T00:50:14.774Z,75.52
2018-08-22T00:51:14.744Z,76.12
2018-08-22T00:52:14.734Z,76.32
2018-08-22T00:53:14.741Z,75.72
2018-08-22T00:54:14.718Z,75.92
2018-08-22T00:55:14.651Z,76.23
2018-08-22T00:56:14.685Z,76.12
2018-08-22T00:57:14.680Z,76.53
2018-08-22T00:58:14.685Z,76.83
2018-08-22T00:59:14.696Z,76.73
2018-08-22T01:00:14.641Z,76.43
2018-08-22T01:01:14.635Z,76.56
2018-08-22T01:02:14.626Z,76.43
2018-08-22T01:03:14.626Z,76.43
2018-08-22T01:04:14.554Z,76.43
2018-08-22T01:05:14.585Z,76.23
2018-08-22T01:06:14.601Z,76.03
2018-08-22T01:07:14.564Z,75.62
2018-08-22T01:08:14.573Z,75.72
2018-08-22T01:09:14.549Z,75.92
2018-08-22T01:10:14.537Z,76.03
2018-08-22T01:11:14.524Z,75.22
2018-08-22T01:12:14.521Z,75.72
2018-08-22T01:13:14.529Z,76.03
2018-08-22T01:14:14.488Z,75.12
2018-08-22T01:15:14.437Z,75.72
2018-08-22T01:16:14.479Z,75.32
2018-08-22T01:17:14.421Z,75.72
2018-08-22T01:18:14.429Z,75.62
2018-08-22T01:19:14.434Z,75.62
2018-08-22T01:20:14.432Z,75.92
2018-08-22T01:21:14.422Z,75.62
2018-08-22T01:22:14.357Z,75.52
2018-08-22T01:23:14.434Z,75.72
2018-08-22T01:24:14.391Z,75.82
2018-08-22T01:25:14.329Z,76.23
2018-08-22T01:26:14.325Z,74.72
2018-08-22T01:27:14.359Z,74.92
2018-08-22T01:28:14.368Z,75.18
2018-08-22T01:29:14.329Z,75.22
2018-08-22T01:30:14.378Z,75.12
2018-08-22T01:31:14.311Z,74.78
2018-08-22T01:32:14.296Z,74.68
2018-08-22T01:33:14.289Z,74.72
2018-08-22T01:34:14.460Z,74.78
2018-08-22T01:35:14.264Z,74.48
2018-08-22T01:36:14.260Z,74.58
2018-08-22T01:37:14.251Z,74.58
2018-08-22T01:38:14.234Z,74.58
2018-08-22T01:39:14.242Z,74.38
2018-08-22T01:40:14.166Z,74.58
2018-08-22T01:41:14.200Z,74.18
2018-08-22T01:42:14.193Z,74.68
2018-08-22T01:43:14.185Z,74.78
2018-08-22T01:44:14.194Z,74.58
2018-08-22T01:45:14.165Z,74.88
2018-08-22T01:46:14.153Z,74.98
2018-08-22T01:47:14.130Z,74.88
2018-08-22T01:48:14.127Z,74.88
2018-08-22T01:49:14.141Z,75.09
2018-08-22T01:50:14.156Z,74.88
2018-08-22T01:51:14.122Z,74.98
2018-08-22T01:52:14.080Z,74.55
2018-08-22T01:53:14.069Z,74.88
2018-08-22T01:54:14.082Z,74.78
2018-08-22T01:55:14.053Z,74.68
2018-08-22T01:56:14.093Z,74.48
2018-08-22T01:57:14.044Z,74.58
2018-08-22T01:58:14.024Z,74.78
2018-08-22T01:59:14.028Z,74.78
2018-08-22T02:00:13.997Z,74.38
2018-08-22T02:01:13.993Z,74.68
2018-08-22T02:02:13.982Z,74.48
2018-08-22T02:03:13.964Z,74.48
2018-08-22T02:04:13.983Z,74.78
2018-08-22T02:05:13.944Z,74.68
2018-08-22T02:06:13.891Z,74.98
2018-08-22T02:07:13.943Z,74.78
2018-08-22T02:08:13.921Z,74.78
2018-08-22T02:09:13.936Z,74.92
2018-08-22T02:10:13.898Z,74.78
2018-08-22T02:11:13.880Z,75.18
2018-08-22T02:12:13.869Z,75.62
2018-08-22T02:13:13.873Z,75.22
2018-08-22T02:14:13.905Z,75.82
2018-08-22T02:15:13.855Z,75.72
2018-08-22T02:16:13.825Z,75.52
2018-08-22T02:17:13.817Z,76.23
2018-08-22T02:18:13.762Z,76.53
2018-08-22T02:19:13.821Z,75.92
2018-08-22T02:20:13.788Z,76.23
2018-08-22T02:21:13.767Z,76.53
2018-08-22T02:22:13.769Z,76.43
2018-08-22T02:23:20.793Z,76.03
2018-08-22T02:24:13.760Z,76.12
2018-08-22T02:25:13.805Z,75.92
2018-08-22T02:26:13.713Z,76.32
2018-08-22T02:27:13.662Z,76.36
2018-08-22T02:28:13.649Z,76.63
2018-08-22T02:29:13.873Z,76.93
2018-08-22T02:30:13.676Z,76.63
2018-08-22T02:31:13.676Z,76.56
2018-08-22T02:32:13.670Z,76.53
2018-08-22T02:33:13.636Z,76.03
2018-08-22T02:34:13.653Z,76.43
2018-08-22T02:35:13.623Z,76.03
2018-08-22T02:36:13.619Z,76.43
2018-08-22T02:37:13.595Z,76.43
2018-08-22T02:38:13.604Z,76.23
2018-08-22T02:39:13.688Z,76.83
2018-08-22T02:40:13.573Z,76.63
2018-08-22T02:41:13.563Z,76.32
2018-08-22T02:42:13.548Z,76.53
2018-08-22T02:43:13.587Z,76.43
2018-08-22T02:44:13.557Z,76.03
2018-08-22T02:45:13.511Z,76.32
2018-08-22T02:46:13.518Z,75.92
2018-08-22T02:47:13.496Z,76.12
2018-08-22T02:48:13.484Z,76.23
2018-08-22T02:49:13.516Z,76.12
2018-08-22T02:50:13.415Z,76.53
2018-08-22T02:51:13.451Z,76.23
2018-08-22T02:52:13.445Z,76.12
2018-08-22T02:53:13.453Z,76.32
2018-08-22T02:54:13.438Z,76.53
2018-08-22T02:55:13.404Z,76.43
2018-08-22T02:56:13.408Z,76.63
2018-08-22T02:57:13.389Z,76.43
2018-08-22T02:58:13.331Z,76.53
2018-08-22T02:59:13.438Z,76.43
2018-08-22T03:00:13.399Z,76.63
2018-08-22T03:01:13.345Z,76.36
2018-08-22T03:02:13.330Z,75.86
2018-08-22T03:03:13.321Z,76.36
2018-08-22T03:04:13.337Z,76.26
2018-08-22T03:05:13.305Z,75.96
2018-08-22T03:06:13.317Z,76.26
2018-08-22T03:07:13.242Z,76.46
2018-08-22T03:08:13.291Z,76.26
2018-08-22T03:09:13.264Z,75.86
2018-08-22T03:10:13.291Z,76.46
2018-08-22T03:11:13.239Z,76.56
2018-08-22T03:12:13.224Z,76.16
2018-08-22T03:13:13.227Z,75.96
2018-08-22T03:14:13.196Z,76.16
2018-08-22T03:15:13.196Z,76.06
2018-08-22T03:16:13.177Z,76.50
2018-08-22T03:17:13.191Z,76.40
2018-08-22T03:18:13.161Z,76.56
2018-08-22T03:19:13.153Z,76.16
2018-08-22T03:20:13.136Z,76.46
2018-08-22T03:21:13.140Z,76.46
2018-08-22T03:22:13.124Z,76.20
2018-08-22T03:23:13.108Z,76.97
2018-08-22T03:24:13.102Z,77.00
2018-08-22T03:25:13.118Z,77.20
2018-08-22T03:26:13.081Z,77.00
2018-08-22T03:27:13.073Z,76.80
2018-08-22T03:28:13.060Z,77.70
2018-08-22T03:29:13.041Z,77.50
2018-08-22T03:30:13.063Z,77.44
2018-08-22T03:31:13.025Z,77.84
2018-08-22T03:32:13.229Z,78.15
2018-08-22T03:33:13.049Z,78.15
2018-08-22T03:34:13.012Z,78.15
2018-08-22T03:35:12.953Z,78.45
2018-08-22T03:36:13.015Z,78.19
2018-08-22T03:37:12.967Z,78.49
2018-08-22T03:38:12.989Z,78.19
2018-08-22T03:39:12.971Z,78.39
2018-08-22T03:40:12.948Z,78.89
2018-08-22T03:41:12.949Z,78.89
2018-08-22T03:42:12.910Z,78.49
2018-08-22T03:43:12.932Z,78.99
2018-08-22T03:44:19.892Z,79.53
2018-08-22T03:45:12.870Z,78.69
2018-08-22T03:46:12.819Z,78.49
2018-08-22T03:47:12.849Z,78.89
2018-08-22T03:48:12.842Z,79.03
2018-08-22T03:49:12.831Z,79.33
2018-08-22T03:50:12.855Z,79.33
2018-08-22T03:51:12.810Z,79.93
2018-08-22T03:52:12.761Z,79.83
2018-08-22T03:53:12.789Z,80.33
2018-08-22T03:54:12.783Z,80.04
2018-08-22T03:55:12.843Z,80.24
2018-08-22T03:56:12.767Z,80.24
2018-08-22T03:57:12.783Z,79.97
2018-08-22T03:58:12.691Z,79.97
2018-08-22T03:59:12.724Z,79.87
2018-08-22T04:00:12.735Z,80.27
2018-08-22T04:01:12.699Z,80.18
2018-08-22T04:02:12.693Z,80.58
2018-08-22T04:03:12.678Z,80.78
2018-08-22T04:04:12.666Z,80.58
2018-08-22T04:05:12.633Z,80.27
2018-08-22T04:06:12.611Z,81.18
2018-08-22T04:07:12.644Z,80.72
2018-08-22T04:08:12.637Z,80.78
2018-08-22T04:09:12.624Z,80.27
2018-08-22T04:10:12.661Z,80.92
2018-08-22T04:11:12.641Z,81.38
2018-08-22T04:12:12.594Z,80.58
2018-08-22T04:13:12.582Z,80.82
2018-08-22T04:14:12.520Z,80.72
2018-08-22T04:15:12.609Z,81.22
2018-08-22T04:16:12.546Z,81.12
2018-08-22T04:17:12.537Z,81.22
2018-08-22T04:18:12.527Z,81.73
2018-08-22T04:19:12.510Z,81.52
2018-08-22T04:20:12.520Z,81.93
2018-08-22T04:21:12.487Z,81.82
2018-08-22T04:22:12.477Z,81.32
2018-08-22T04:23:12.464Z,81.73
2018-08-22T04:24:12.464Z,81.82
2018-08-22T04:25:12.405Z,81.52
2018-08-22T04:26:12.489Z,81.93
2018-08-22T04:27:12.433Z,82.03
2018-08-22T04:28:12.412Z,82.23
2018-08-22T04:29:12.438Z,82.37
2018-08-22T04:30:12.387Z,82.43
2018-08-22T04:31:12.432Z,82.23
2018-08-22T04:32:12.367Z,81.42
2018-08-22T04:33:12.361Z,82.37
2018-08-22T04:34:12.343Z,82.13
2018-08-22T04:35:12.296Z,82.43
2018-08-22T04:36:12.355Z,82.43
2018-08-22T04:37:12.318Z,82.23
2018-08-22T04:38:12.252Z,81.96
2018-08-22T04:39:12.255Z,82.33
2018-08-22T04:40:12.282Z,82.27
2018-08-22T04:41:12.286Z,81.62
2018-08-22T04:42:12.267Z,81.42
2018-08-22T04:43:12.243Z,81.87
2018-08-22T04:44:12.238Z,81.76
2018-08-22T04:45:12.251Z,81.82
2018-08-22T04:46:12.234Z,81.73
2018-08-22T04:47:12.197Z,81.42
2018-08-22T04:48:12.172Z,81.52
2018-08-22T04:49:12.174Z,81.32
2018-08-22T04:50:12.167Z,81.42
2018-08-22T04:51:12.203Z,81.52
2018-08-22T04:52:12.154Z,81.22
2018-08-22T04:53:12.095Z,81.12
2018-08-22T04:54:12.128Z,81.62
2018-08-22T04:55:12.131Z,81.62
2018-08-22T04:56:12.121Z,81.22
2018-08-22T04:57:12.094Z,81.42
2018-08-22T04:58:12.080Z,81.52
2018-08-22T04:59:12.075Z,81.82
2018-08-22T05:00:12.065Z,81.52
2018-08-22T05:01:12.068Z,81.52
2018-08-22T05:02:12.002Z,81.42
2018-08-22T05:03:12.027Z,81.62
2018-08-22T05:04:12.015Z,81.42
2018-08-22T05:05:12.009Z,81.52
2018-08-22T05:06:11.981Z,81.32
2018-08-22T05:07:11.990Z,81.42
2018-08-22T05:08:11.973Z,81.52
2018-08-22T05:09:11.973Z,81.08
2018-08-22T05:10:11.910Z,81.18
2018-08-22T05:11:11.965Z,81.18
2018-08-22T05:12:11.939Z,80.78
2018-08-22T05:13:11.932Z,80.78
2018-08-22T05:14:11.921Z,80.78
2018-08-22T05:15:11.923Z,80.38
2018-08-22T05:16:11.917Z,80.38
2018-08-22T05:17:11.955Z,80.68
2018-08-22T05:18:11.862Z,80.24
2018-08-22T05:19:11.877Z,80.38
2018-08-22T05:20:11.874Z,80.13
2018-08-22T05:21:11.852Z,79.83
2018-08-22T05:22:11.794Z,79.63
2018-08-22T05:23:11.811Z,79.83
2018-08-22T05:24:11.801Z,79.43
2018-08-22T05:25:11.798Z,79.19
2018-08-22T05:26:11.804Z,79.63
2018-08-22T05:27:11.772Z,78.89
2018-08-22T05:28:11.714Z,78.83
2018-08-22T05:29:11.745Z,79.13
2018-08-22T05:30:11.763Z,78.72
2018-08-22T05:31:11.763Z,78.99
2018-08-22T05:32:11.834Z,78.79
2018-08-22T05:33:11.710Z,78.89
2018-08-22T05:34:11.714Z,78.39
2018-08-22T05:35:11.681Z,78.25
2018-08-22T05:36:11.645Z,78.45
2018-08-22T05:37:11.658Z,78.35
2018-08-22T05:38:11.750Z,77.81
2018-08-22T05:39:11.633Z,77.91
2018-08-22T05:40:11.627Z,77.40
2018-08-22T05:41:11.620Z,77.47
2018-08-22T05:42:11.643Z,77.67
2018-08-22T05:43:11.549Z,76.97
2018-08-22T05:44:11.581Z,77.17
2018-08-22T05:45:11.531Z,76.46
2018-08-22T05:46:11.530Z,76.43
2018-08-22T05:47:11.599Z,76.03
2018-08-22T05:48:11.551Z,75.52
2018-08-22T05:49:11.561Z,76.53
2018-08-22T05:50:11.517Z,75.52
2018-08-22T05:51:11.515Z,75.62
2018-08-22T05:52:11.543Z,76.12
2018-08-22T05:53:11.486Z,75.89
2018-08-22T05:54:11.499Z,75.18
2018-08-22T05:55:11.468Z,75.49
2018-08-22T05:56:11.459Z,75.09
2018-08-22T05:57:11.508Z,74.95
2018-08-22T05:58:11.431Z,74.24
2018-08-22T05:59:11.418Z,74.15
2018-08-22T06:00:11.418Z,73.91
2018-08-22T06:01:11.356Z,73.61
2018-08-22T06:02:11.590Z,73.30
2018-08-22T06:03:11.393Z,72.77
2018-08-22T06:04:11.381Z,72.67
2018-08-22T06:05:11.374Z,72.56
2018-08-22T06:06:11.349Z,71.73
2018-08-22T06:07:11.367Z,70.19
2018-08-22T06:08:11.342Z,69.12
2018-08-22T06:09:11.356Z,66.66
2018-08-22T06:10:11.335Z,65.46
2018-08-22T06:11:11.344Z,64.33
2018-08-22T06:12:11.345Z,62.90
2018-08-22T06:13:11.272Z,62.30
2018-08-22T06:14:11.288Z,62.57
2018-08-22T06:15:11.342Z,61.35
2018-08-22T06:16:11.370Z,59.39
2018-08-22T06:17:11.257Z,58.37
2018-08-22T06:18:11.219Z,57.12
2018-08-22T06:19:11.224Z,56.89
2018-08-22T06:20:11.201Z,56.27
2018-08-22T06:21:11.211Z,55.38
2018-08-22T06:22:11.198Z,54.46
2018-08-22T06:23:11.175Z,54.23
2018-08-22T06:24:11.163Z,53.70
2018-08-22T06:25:11.109Z,53.31
2018-08-22T06:26:11.138Z,52.79
2018-08-22T06:27:11.170Z,51.70
2018-08-22T06:28:11.115Z,51.67
2018-08-22T06:29:11.104Z,50.76
2018-08-22T06:30:11.113Z,50.73
2018-08-22T06:31:11.176Z,49.89
2018-08-22T06:32:11.094Z,48.95
2018-08-22T06:33:11.078Z,48.97
2018-08-22T06:34:11.058Z,48.28
2018-08-22T06:35:11.053Z,47.86
2018-08-22T06:36:11.071Z,47.96
2018-08-22T06:37:11.109Z,47.05
2018-08-22T06:38:10.962Z,46.93
2018-08-22T06:39:11.012Z,45.62
2018-08-22T06:40:10.997Z,45.40
2018-08-22T06:41:11.021Z,45.38
2018-08-22T06:42:10.987Z,44.59
2018-08-22T06:43:10.954Z,43.88
2018-08-22T06:44:10.988Z,43.68
2018-08-22T06:45:10.890Z,45.28
2018-08-22T06:46:18.155Z,45.28
2018-08-22T06:47:10.895Z,45.28
2018-08-22T06:48:10.913Z,44.79
2018-08-22T06:49:10.893Z,43.37
2018-08-22T06:50:10.903Z,43.46
2018-08-22T06:51:10.874Z,43.24
2018-08-22T06:52:10.887Z,43.15
2018-08-22T06:53:10.864Z,43.05
2018-08-22T06:54:10.841Z,42.44
2018-08-22T06:55:10.826Z,42.41
2018-08-22T06:56:10.777Z,42.41
2018-08-22T06:57:10.911Z,42.55
2018-08-22T06:58:10.803Z,43.64
2018-08-22T06:59:10.787Z,42.73
2018-08-22T07:00:10.784Z,42.85
2018-08-22T07:01:10.778Z,43.46
2018-08-22T07:02:10.794Z,43.59
2018-08-22T07:03:10.755Z,43.59
2018-08-22T07:04:10.781Z,44.79
2018-08-22T07:05:10.726Z,43.56
2018-08-22T07:06:10.713Z,43.74
2018-08-22T07:07:10.803Z,42.93
2018-08-22T07:08:10.734Z,43.34
2018-08-22T07:09:10.702Z,43.24
2018-08-22T07:10:10.678Z,43.15
2018-08-22T07:11:10.689Z,43.07
2018-08-22T07:12:10.682Z,43.15
2018-08-22T07:13:10.653Z,43.44
2018-08-22T07:14:10.654Z,42.73
2018-08-22T07:15:10.631Z,42.02
2018-08-22T07:16:10.633Z,42.12
2018-08-22T07:17:10.577Z,42.81
2018-08-22T07:18:10.558Z,42.18
2018-08-22T07:19:10.580Z,41.17
2018-08-22T07:20:10.736Z,40.90
2018-08-22T07:21:10.570Z,42.20
2018-08-22T07:22:10.570Z,42.61
2018-08-22T07:23:10.573Z,42.61
2018-08-22T07:24:10.531Z,42.40
2018-08-22T07:25:10.543Z,40.90
2018-08-22T07:26:10.517Z,41.02
2018-08-22T07:27:10.550Z,41.19
2018-08-22T07:28:10.512Z,40.66
2018-08-22T07:29:10.479Z,40.08
2018-08-22T07:30:10.502Z,40.25
2018-08-22T07:31:10.453Z,40.62
2018-08-22T07:32:10.451Z,40.27
2018-08-22T07:33:10.457Z,41.03
2018-08-22T07:34:10.438Z,40.98
2018-08-22T07:35:10.414Z,40.47
2018-08-22T07:36:10.409Z,40.56
2018-08-22T07:37:10.401Z,40.06
2018-08-22T07:38:10.411Z,40.35
2018-08-22T07:39:10.389Z,40.17
2018-08-22T07:40:10.362Z,40.64
2018-08-22T07:41:10.355Z,40.16
2018-08-22T07:42:10.345Z,40.13
2018-08-22T07:43:10.363Z,40.70
2018-08-22T07:44:10.341Z,40.01
2018-08-22T07:45:10.329Z,39.23
2018-08-22T07:46:10.302Z,39.70
2018-08-22T07:47:10.347Z,39.62
2018-08-22T07:48:10.308Z,39.82
2018-08-22T07:49:10.266Z,39.82
2018-08-22T07:50:10.283Z,39.70
2018-08-22T07:51:10.254Z,38.70
2018-08-22T07:52:10.244Z,37.41
2018-08-22T07:53:10.272Z,38.10
2018-08-22T07:54:10.287Z,38.29
2018-08-22T07:55:10.219Z,38.20
2018-08-22T07:56:10.220Z,39.00
2018-08-22T07:57:10.205Z,38.49
2018-08-22T07:58:10.200Z,38.68
2018-08-22T07:59:10.190Z,39.00
2018-08-22T08:00:10.189Z,39.01
2018-08-22T08:01:10.150Z,39.25
2018-08-22T08:02:10.166Z,39.64
2018-08-22T08:03:10.144Z,40.43
2018-08-22T08:04:10.122Z,40.92
2018-08-22T08:05:10.106Z,40.33
2018-08-22T08:06:10.098Z,39.45
2018-08-22T08:07:10.087Z,39.33
2018-08-22T08:08:18.707Z,39.53
2018-08-22T08:09:10.063Z,39.15
2018-08-22T08:10:10.051Z,39.62
2018-08-22T08:11:10.046Z,40.03
2018-08-22T08:12:10.035Z,40.35
2018-08-22T08:13:10.059Z,40.16
2018-08-22T08:14:10.018Z,40.33
2018-08-22T08:15:10.015Z,39.35
2018-08-22T08:16:09.990Z,40.74
2018-08-22T08:17:10.015Z,40.47
2018-08-22T08:18:09.997Z,39.95
2018-08-22T08:19:09.967Z,40.94
2018-08-22T08:20:09.974Z,41.25
2018-08-22T08:21:09.890Z,40.69
2018-08-22T08:22:09.933Z,40.39
2018-08-22T08:23:09.920Z,40.29
2018-08-22T08:24:09.940Z,40.90
2018-08-22T08:25:09.898Z,41.09
2018-08-22T08:26:09.954Z,40.98
2018-08-22T08:27:09.954Z,40.39
2018-08-22T08:28:09.878Z,41.29
2018-08-22T08:29:09.887Z,41.47
2018-08-22T08:30:09.844Z,41.09
2018-08-22T08:31:09.862Z,40.39
2018-08-22T08:32:09.841Z,41.17
2018-08-22T08:33:09.837Z,40.09
2018-08-22T08:34:09.839Z,40.78
2018-08-22T08:35:09.800Z,40.19
2018-08-22T08:36:09.854Z,40.00
2018-08-22T08:37:09.778Z,40.48
2018-08-22T08:38:09.768Z,40.58
2018-08-22T08:39:09.795Z,40.58
2018-08-22T08:40:09.744Z,41.09
2018-08-22T08:41:09.737Z,40.61
2018-08-22T08:42:09.729Z,41.00
2018-08-22T08:43:09.765Z,40.61
2018-08-22T08:44:09.728Z,41.22
2018-08-22T08:45:09.719Z,40.92
2018-08-22T08:46:09.694Z,40.43
2018-08-22T08:47:09.689Z,40.61
2018-08-22T08:48:09.663Z,41.29
2018-08-22T08:49:09.684Z,41.90
2018-08-22T08:50:09.643Z,41.09
2018-08-22T08:51:09.633Z,40.51
2018-08-22T08:52:09.650Z,40.80
2018-08-22T08:53:09.610Z,40.43
2018-08-22T08:54:09.644Z,40.80
2018-08-22T08:55:09.595Z,40.92
2018-08-22T08:56:09.591Z,40.31
2018-08-22T08:57:09.625Z,41.19
2018-08-22T08:58:09.563Z,40.80
2018-08-22T08:59:09.640Z,40.61
2018-08-22T09:00:09.537Z,40.98
2018-08-22T09:01:09.565Z,40.48
2018-08-22T09:02:09.528Z,40.17
2018-08-22T09:03:09.522Z,40.39
2018-08-22T09:04:09.551Z,40.19
2018-08-22T09:05:09.493Z,41.29
2018-08-22T09:06:09.494Z,40.70
2018-08-22T09:07:09.422Z,40.61
2018-08-22T09:08:09.459Z,40.19
2018-08-22T09:09:09.464Z,40.98
2018-08-22T09:10:09.444Z,40.37
2018-08-22T09:11:09.422Z,40.17
2018-08-22T09:12:09.491Z,40.76
2018-08-22T09:13:09.363Z,40.56
2018-08-22T09:14:09.413Z,40.29
2018-08-22T09:15:09.392Z,40.58
2018-08-22T09:16:09.329Z,40.09
2018-08-22T09:17:09.379Z,40.09
2018-08-22T09:18:09.306Z,40.19
2018-08-22T09:19:09.396Z,40.39
2018-08-22T09:20:09.346Z,40.58
2018-08-22T09:21:09.330Z,40.19
2018-08-22T09:22:09.334Z,40.00
2018-08-22T09:23:09.302Z,40.27
2018-08-22T09:24:09.418Z,40.69
2018-08-22T09:25:09.292Z,40.47
2018-08-22T09:26:09.279Z,39.58
2018-08-22T09:27:09.263Z,39.56
2018-08-22T09:28:09.304Z,39.37
2018-08-22T09:29:09.258Z,39.17
2018-08-22T09:30:09.274Z,39.95
2018-08-22T09:31:09.218Z,39.47
2018-08-22T09:32:09.210Z,39.45
2018-08-22T09:33:09.200Z,39.74
2018-08-22T09:34:09.188Z,39.54
2018-08-22T09:35:09.200Z,39.54
2018-08-22T09:36:09.169Z,39.76
2018-08-22T09:37:09.153Z,39.86
2018-08-22T09:38:09.164Z,39.66
2018-08-22T09:39:09.143Z,39.66
2018-08-22T09:40:09.220Z,39.86
2018-08-22T09:41:09.237Z,40.56
2018-08-22T09:42:09.111Z,40.08
2018-08-22T09:43:09.121Z,40.58
2018-08-22T09:44:09.108Z,40.78
2018-08-22T09:45:09.102Z,40.69
2018-08-22T09:46:09.062Z,39.50
2018-08-22T09:47:09.054Z,40.58
2018-08-22T09:48:09.046Z,40.98
2018-08-22T09:49:09.033Z,40.69
2018-08-22T09:50:09.086Z,40.29
2018-08-22T09:51:09.060Z,39.39
2018-08-22T09:52:09.004Z,39.19
2018-08-22T09:53:09.003Z,39.68
2018-08-22T09:54:08.986Z,39.29
2018-08-22T09:55:09.021Z,39.68
2018-08-22T09:56:08.962Z,39.39
2018-08-22T09:57:08.966Z,39.88
2018-08-22T09:58:08.905Z,40.86
2018-08-22T09:59:08.945Z,40.58
2018-08-22T10:00:08.995Z,40.00
2018-08-22T10:01:08.982Z,40.09
2018-08-22T10:02:08.898Z,40.09
2018-08-22T10:03:08.898Z,40.00
2018-08-22T10:04:08.885Z,40.39
2018-08-22T10:05:08.892Z,40.78
2018-08-22T10:06:08.867Z,40.29
2018-08-22T10:07:08.974Z,40.58
2018-08-22T10:08:08.837Z,40.70
2018-08-22T10:09:08.788Z,40.13
2018-08-22T10:10:08.846Z,40.23
2018-08-22T10:11:08.824Z,40.55
2018-08-22T10:12:08.791Z,40.55
2018-08-22T10:13:08.860Z,41.71
2018-08-22T10:14:08.773Z,40.82
2018-08-22T10:15:08.805Z,40.43
2018-08-22T10:16:08.761Z,40.84
2018-08-22T10:17:08.788Z,40.64
2018-08-22T10:18:08.732Z,40.55
2018-08-22T10:19:08.718Z,40.13
2018-08-22T10:20:08.745Z,40.13
2018-08-22T10:21:08.703Z,41.11
2018-08-22T10:22:08.696Z,40.13
2018-08-22T10:23:08.650Z,40.53
2018-08-22T10:24:08.684Z,40.72
2018-08-22T10:25:08.722Z,40.03
2018-08-22T10:26:08.653Z,40.25
2018-08-22T10:27:08.724Z,40.84
2018-08-22T10:28:08.638Z,40.45
2018-08-22T10:29:08.735Z,41.11
2018-08-22T10:30:08.630Z,40.55
2018-08-22T10:31:08.604Z,40.82
2018-08-22T10:32:08.592Z,40.82
2018-08-22T10:33:08.597Z,40.62
2018-08-22T10:34:08.579Z,40.82
2018-08-22T10:35:08.598Z,41.11
2018-08-22T10:36:08.544Z,41.02
2018-08-22T10:37:08.535Z,40.55
2018-08-22T10:38:08.522Z,41.14
2018-08-22T10:39:08.517Z,40.64
2018-08-22T10:40:08.526Z,40.84
2018-08-22T10:41:08.489Z,40.45
2018-08-22T10:42:08.477Z,41.14
2018-08-22T10:43:08.473Z,41.14
2018-08-22T10:44:08.461Z,40.84
2018-08-22T10:45:08.544Z,41.04
2018-08-22T10:46:08.447Z,41.04
2018-08-22T10:47:08.444Z,40.84
2018-08-22T10:48:08.491Z,41.04
2018-08-22T10:49:08.406Z,41.04
2018-08-22T10:50:08.421Z,40.64
2018-08-22T10:51:08.476Z,40.82
2018-08-22T10:52:08.391Z,40.94
2018-08-22T10:53:08.388Z,40.55
2018-08-22T10:54:08.368Z,40.84
2018-08-22T10:55:08.372Z,40.66
2018-08-22T10:56:08.296Z,41.14
2018-08-22T10:57:08.327Z,40.16
2018-08-22T10:58:08.314Z,40.84
2018-08-22T10:59:08.301Z,41.14
2018-08-22T11:00:08.293Z,40.35
2018-08-22T11:01:08.318Z,40.23
2018-08-22T11:02:08.348Z,41.11
2018-08-22T11:03:08.264Z,40.82
2018-08-22T11:04:08.251Z,40.23
2018-08-22T11:05:08.246Z,40.64
2018-08-22T11:06:08.277Z,40.82
2018-08-22T11:07:08.234Z,40.53
2018-08-22T11:08:08.212Z,40.62
2018-08-22T11:09:08.231Z,40.84
2018-08-22T11:10:08.190Z,40.82
2018-08-22T11:11:08.228Z,40.72
2018-08-22T11:12:08.177Z,40.82
2018-08-22T11:13:08.156Z,40.72
2018-08-22T11:14:08.145Z,40.84
2018-08-22T11:15:08.142Z,40.55
2018-08-22T11:16:08.178Z,40.25
2018-08-22T11:17:08.110Z,40.25
2018-08-22T11:18:08.100Z,40.16
2018-08-22T11:19:08.048Z,40.94
2018-08-22T11:20:08.035Z,40.25
2018-08-22T11:21:08.106Z,40.25
2018-08-22T11:22:08.113Z,40.74
2018-08-22T11:23:08.067Z,40.62
2018-08-22T11:24:08.041Z,40.74
2018-08-22T11:25:08.060Z,41.31
2018-08-22T11:26:08.043Z,40.23
2018-08-22T11:27:08.051Z,40.82
2018-08-22T11:28:08.016Z,40.51
2018-08-22T11:29:07.983Z,39.62
2018-08-22T11:30:07.970Z,40.09
2018-08-22T11:31:07.993Z,39.70
2018-08-22T11:32:07.963Z,39.50
2018-08-22T11:33:07.942Z,39.70
2018-08-22T11:34:07.931Z,39.70
2018-08-22T11:35:07.919Z,39.00
2018-08-22T11:36:07.932Z,39.40
2018-08-22T11:37:07.851Z,39.50
2018-08-22T11:38:07.896Z,39.21
2018-08-22T11:39:07.912Z,39.60
2018-08-22T11:40:07.864Z,39.92
2018-08-22T11:41:07.909Z,39.82
2018-08-22T11:42:07.847Z,40.43
2018-08-22T11:43:07.856Z,39.62
2018-08-22T11:44:07.834Z,39.23
2018-08-22T11:45:07.814Z,39.62
2018-08-22T11:46:07.836Z,39.62
2018-08-22T11:47:07.793Z,40.11
2018-08-22T11:48:07.795Z,39.92
2018-08-22T11:49:07.785Z,40.11
2018-08-22T11:50:07.769Z,40.01
2018-08-22T11:51:07.793Z,39.23
2018-08-22T11:52:07.749Z,40.61
2018-08-22T11:53:07.733Z,39.52
2018-08-22T11:54:07.724Z,39.52
2018-08-22T11:55:07.735Z,39.72
2018-08-22T11:56:07.902Z,40.01
2018-08-22T11:57:08.250Z,39.62
2018-08-22T11:58:07.677Z,39.50
2018-08-22T11:59:07.718Z,39.82
2018-08-22T12:00:07.685Z,38.84
2018-08-22T12:01:07.690Z,39.52
2018-08-22T12:02:07.688Z,39.62
2018-08-22T12:03:07.637Z,39.92
2018-08-22T12:04:07.724Z,39.34
2018-08-22T12:05:07.782Z,39.62
2018-08-22T12:06:07.568Z,40.11
2018-08-22T12:07:07.590Z,39.92
2018-08-22T12:08:07.569Z,39.82
2018-08-22T12:09:07.534Z,39.92
2018-08-22T12:10:08.296Z,39.40
2018-08-22T12:11:07.726Z,39.50
2018-08-22T12:12:08.219Z,39.60
2018-08-22T12:13:07.537Z,38.72
2018-08-22T12:14:08.209Z,39.21
2018-08-22T12:15:07.457Z,38.82
2018-08-22T12:16:07.518Z,39.11
2018-08-22T12:17:07.500Z,38.92
2018-08-22T12:18:07.506Z,39.39
2018-08-22T12:19:08.294Z,39.19
2018-08-22T12:20:07.461Z,38.80
2018-08-22T12:21:07.440Z,39.09
2018-08-22T12:22:07.465Z,39.78
2018-08-22T12:23:07.549Z,39.19
2018-08-22T12:24:07.409Z,39.09
2018-08-22T12:25:07.401Z,39.29
2018-08-22T12:26:07.382Z,38.80
2018-08-22T12:27:07.432Z,39.48
2018-08-22T12:28:07.319Z,38.62
2018-08-22T12:29:07.365Z,39.50
2018-08-22T12:30:07.340Z,39.40
2018-08-22T12:31:07.377Z,38.70
2018-08-22T12:32:07.350Z,39.39
2018-08-22T12:33:07.283Z,39.19
2018-08-22T12:34:07.339Z,39.19
2018-08-22T12:35:07.296Z,38.80
2018-08-22T12:36:07.286Z,38.82
2018-08-22T12:37:07.288Z,39.50
2018-08-22T12:38:07.259Z,38.72
2018-08-22T12:39:07.259Z,39.40
2018-08-22T12:40:08.228Z,38.72
2018-08-22T12:41:07.227Z,38.72
2018-08-22T12:42:07.243Z,39.50
2018-08-22T12:43:07.214Z,39.70
2018-08-22T12:44:07.196Z,40.00
2018-08-22T12:45:07.187Z,39.50
2018-08-22T12:46:07.189Z,40.09
2018-08-22T12:47:07.153Z,39.80
2018-08-22T12:48:07.156Z,39.21
2018-08-22T12:49:07.100Z,39.40
2018-08-22T12:50:07.154Z,39.70
2018-08-22T12:51:07.122Z,39.70
2018-08-22T12:52:07.148Z,39.90